This demonstration page uses our WeatherBlox Daily Observations layout. Learn more.

Left ArrowRight Arrow

36.17497, -115.13722

Hourly Observations for April 14, 2016

Temp ( °F °C ) Dew Point ( °F °C ) Humidity (%) Winds ( mph kmh ) Pressure ( in mb ) Visibility ( mi km ) Precip ( " mm )
12:53 am 00:53 Clear 70 21.1 32 0 25 25 S 16 26 29.83 1010 10 16.0934 0 0
1:53 am 01:53 Clear 69 20.6 33 0.6 26 26 SSW 9 15 29.83 1010 10 16.0934 0 0
2:53 am 02:53 Clear 68 20 35 1.7 30 30 SSW 13 20 29.81 1009 10 16.0934 0 0
3:53 am 03:53 Clear 65 18.3 35 1.7 33 33 S 14 22 29.8 1009 10 16.0934 0 0
4:53 am 04:53 Clear 64 17.8 37 2.8 37 37 S 17 28 29.77 1008 10 16.0934 0 0
5:53 am 05:53 Clear 64 17.8 35 1.7 34 34 S 14 22 29.77 1008 10 16.0934 0 0
6:53 am 06:53 Sunny 63 17.2 34 1.1 34 34 S 8 13 29.8 1009 10 16.0934 0 0
7:53 am 07:53 Sunny 64 17.8 35 1.7 34 34 Calm 29.8 1009 10 16.0934 0 0
8:53 am 08:53 Sunny 65 18.3 37 2.8 36 36 W 7 11 29.8 1009 10 16.0934 0 0
9:53 am 09:53 Sunny 66 18.9 35 1.7 32 32 VRB 3 6 29.81 1010 10 16.0934 0 0
10:53 am 10:53 Sunny 69 20.6 34 1.1 27 27 VRB 5 7 29.8 1009 10 16.0934 0 0
11:53 am 11:53 Sunny 71 21.7 34 1.1 26 26 S 3 6 29.77 1008 10 16.0934 0 0
12:53 pm 12:53 Sunny 74 23.3 34 1.1 23 23 SSW 5 7 29.74 1007 10 16.0934 0 0
1:53 pm 13:53 Sunny 76 24.4 33 0.6 21 21 ENE 6 9 29.72 1006 10 16.0934 0 0
2:53 pm 14:53 Sunny 78 25.6 32 0 19 19 VRB 5 7 29.7 1006 10 16.0934 0 0
3:53 pm 15:53 Sunny 79 26.1 32 0 18 18 VRB 3 6 29.66 1005 10 16.0934 0 0
4:53 pm 16:53 Sunny 78 25.6 32 0 19 19 Calm 29.65 1004 10 16.0934 0 0
5:53 pm 17:53 Sunny 78 25.6 27 -2.8 15 15 SSW 7 11 29.65 1004 10 16.0934 0 0
6:53 pm 18:53 Sunny 77 25 24 -4.4 14 14 WSW 12 19 29.63 1003 10 16.0934 0 0
7:53 pm 19:53 Clear 75 23.9 25 -3.9 15 15 W 7 11 29.63 1003 10 16.0934 0 0
8:53 pm 20:53 Clear 74 23.3 21 -6.1 14 14 WSW 9 15 29.65 1004 10 16.0934 0 0
9:53 pm 21:53 Clear 71 21.7 25 -3.9 18 18 Calm 29.65 1004 10 16.0934 0 0
10:53 pm 22:53 Clear 71 21.7 24 -4.4 17 17 NW 16 26 29.66 1004 10 16.0934 0 0
11:53 pm 23:53 Clear 69 20.6 9 -12.8 9 9 NNW 22 35 29.67 1005 10 16.0934 0 0

Powered by AerisWeather